sensor_id;sensor_type;location;lat;lon;timestamp;P1;durP1;ratioP1;P2;durP2;ratioP2
79202;SDS011;68630;42.748;23.278;2023-09-18T00:00:47;34.00;;;24.43;;
79202;SDS011;68630;42.748;23.278;2023-09-18T00:03:18;39.05;;;26.73;;
79202;SDS011;68630;42.748;23.278;2023-09-18T00:05:49;37.83;;;26.48;;
79202;SDS011;68630;42.748;23.278;2023-09-18T00:08:18;42.35;;;25.35;;
79202;SDS011;68630;42.748;23.278;2023-09-18T00:10:47;42.08;;;26.00;;
79202;SDS011;68630;42.748;23.278;2023-09-18T00:15:49;31.82;;;24.55;;
79202;SDS011;68630;42.748;23.278;2023-09-18T00:18:18;40.83;;;23.32;;
79202;SDS011;68630;42.748;23.278;2023-09-18T00:20:48;33.00;;;25.02;;
79202;SDS011;68630;42.748;23.278;2023-09-18T00:23:20;30.60;;;24.77;;
79202;SDS011;68630;42.748;23.278;2023-09-18T00:25:47;31.60;;;24.70;;
79202;SDS011;68630;42.748;23.278;2023-09-18T00:28:20;32.98;;;23.73;;
79202;SDS011;68630;42.748;23.278;2023-09-18T00:30:49;35.95;;;23.65;;
79202;SDS011;68630;42.748;23.278;2023-09-18T00:33:18;39.15;;;24.80;;
79202;SDS011;68630;42.748;23.278;2023-09-18T00:35:48;33.78;;;23.52;;
79202;SDS011;68630;42.748;23.278;2023-09-18T00:38:17;32.95;;;22.42;;
79202;SDS011;68630;42.748;23.278;2023-09-18T00:40:45;41.37;;;23.38;;
79202;SDS011;68630;42.748;23.278;2023-09-18T00:43:24;26.75;;;20.45;;
79202;SDS011;68630;42.748;23.278;2023-09-18T00:45:49;30.85;;;21.37;;
79202;SDS011;68630;42.748;23.278;2023-09-18T00:48:19;34.73;;;20.72;;
79202;SDS011;68630;42.748;23.278;2023-09-18T00:50:47;28.67;;;20.77;;
79202;SDS011;68630;42.748;23.278;2023-09-18T00:53:20;28.75;;;20.08;;
79202;SDS011;68630;42.748;23.278;2023-09-18T00:55:50;27.87;;;19.92;;
79202;SDS011;68630;42.748;23.278;2023-09-18T00:58:24;32.05;;;20.32;;
79202;SDS011;68630;42.748;23.278;2023-09-18T01:00:51;34.08;;;19.32;;
79202;SDS011;68630;42.748;23.278;2023-09-18T01:03:22;30.05;;;20.05;;
79202;SDS011;68630;42.748;23.278;2023-09-18T01:05:51;28.32;;;19.95;;
79202;SDS011;68630;42.748;23.278;2023-09-18T01:08:21;29.15;;;18.45;;
79202;SDS011;68630;42.748;23.278;2023-09-18T01:10:56;26.68;;;18.82;;
79202;SDS011;68630;42.748;23.278;2023-09-18T01:13:28;26.42;;;17.85;;
79202;SDS011;68630;42.748;23.278;2023-09-18T01:16:02;28.85;;;18.07;;
79202;SDS011;68630;42.748;23.278;2023-09-18T01:20:59;29.87;;;17.32;;
79202;SDS011;68630;42.748;23.278;2023-09-18T01:23:29;22.58;;;17.07;;
79202;SDS011;68630;42.748;23.278;2023-09-18T01:25:58;27.40;;;16.35;;
79202;SDS011;68630;42.748;23.278;2023-09-18T01:28:32;24.43;;;16.02;;
79202;SDS011;68630;42.748;23.278;2023-09-18T01:30:59;27.32;;;15.60;;
79202;SDS011;68630;42.748;23.278;2023-09-18T01:33:27;21.30;;;13.95;;
79202;SDS011;68630;42.748;23.278;2023-09-18T01:35:57;21.05;;;13.45;;
79202;SDS011;68630;42.748;23.278;2023-09-18T01:38:26;22.50;;;14.50;;
79202;SDS011;68630;42.748;23.278;2023-09-18T01:41:00;21.40;;;13.43;;
79202;SDS011;68630;42.748;23.278;2023-09-18T01:43:30;18.07;;;12.60;;
79202;SDS011;68630;42.748;23.278;2023-09-18T01:45:59;19.07;;;12.93;;
79202;SDS011;68630;42.748;23.278;2023-09-18T01:48:30;19.00;;;13.38;;
79202;SDS011;68630;42.748;23.278;2023-09-18T01:50:58;25.30;;;14.53;;
79202;SDS011;68630;42.748;23.278;2023-09-18T01:53:25;21.60;;;13.88;;
79202;SDS011;68630;42.748;23.278;2023-09-18T01:55:54;20.88;;;15.15;;
79202;SDS011;68630;42.748;23.278;2023-09-18T01:58:25;24.27;;;15.15;;
79202;SDS011;68630;42.748;23.278;2023-09-18T02:00:52;27.70;;;15.50;;
79202;SDS011;68630;42.748;23.278;2023-09-18T02:03:20;28.65;;;16.87;;
79202;SDS011;68630;42.748;23.278;2023-09-18T02:05:48;26.10;;;16.67;;
79202;SDS011;68630;42.748;23.278;2023-09-18T02:08:16;24.95;;;17.77;;
79202;SDS011;68630;42.748;23.278;2023-09-18T02:10:43;28.83;;;18.55;;
79202;SDS011;68630;42.748;23.278;2023-09-18T02:13:11;26.10;;;18.10;;
79202;SDS011;68630;42.748;23.278;2023-09-18T02:15:44;32.98;;;19.80;;
79202;SDS011;68630;42.748;23.278;2023-09-18T02:18:08;28.87;;;19.55;;
79202;SDS011;68630;42.748;23.278;2023-09-18T02:20:41;27.30;;;19.65;;
79202;SDS011;68630;42.748;23.278;2023-09-18T02:23:19;33.83;;;19.42;;
79202;SDS011;68630;42.748;23.278;2023-09-18T02:25:54;29.18;;;20.27;;
79202;SDS011;68630;42.748;23.278;2023-09-18T02:28:26;33.33;;;21.17;;
79202;SDS011;68630;42.748;23.278;2023-09-18T02:30:54;38.98;;;21.27;;
79202;SDS011;68630;42.748;23.278;2023-09-18T02:33:21;35.63;;;22.05;;
79202;SDS011;68630;42.748;23.278;2023-09-18T02:35:49;28.70;;;19.40;;
79202;SDS011;68630;42.748;23.278;2023-09-18T02:38:17;27.62;;;18.73;;
79202;SDS011;68630;42.748;23.278;2023-09-18T02:40:44;30.82;;;18.75;;
79202;SDS011;68630;42.748;23.278;2023-09-18T02:43:12;33.40;;;17.65;;
79202;SDS011;68630;42.748;23.278;2023-09-18T02:45:39;27.75;;;15.65;;
79202;SDS011;68630;42.748;23.278;2023-09-18T02:48:07;22.93;;;14.87;;
79202;SDS011;68630;42.748;23.278;2023-09-18T02:50:35;28.85;;;16.27;;
79202;SDS011;68630;42.748;23.278;2023-09-18T02:53:02;27.05;;;15.18;;
79202;SDS011;68630;42.748;23.278;2023-09-18T02:55:32;26.95;;;14.55;;
79202;SDS011;68630;42.748;23.278;2023-09-18T02:57:59;25.52;;;15.10;;
79202;SDS011;68630;42.748;23.278;2023-09-18T03:00:28;26.27;;;14.15;;
79202;SDS011;68630;42.748;23.278;2023-09-18T03:02:58;22.52;;;12.63;;
79202;SDS011;68630;42.748;23.278;2023-09-18T03:05:26;19.75;;;12.80;;
79202;SDS011;68630;42.748;23.278;2023-09-18T03:07:53;20.45;;;13.22;;
79202;SDS011;68630;42.748;23.278;2023-09-18T03:10:21;21.00;;;12.98;;
79202;SDS011;68630;42.748;23.278;2023-09-18T03:12:48;25.48;;;12.78;;
79202;SDS011;68630;42.748;23.278;2023-09-18T03:15:18;25.05;;;12.65;;
79202;SDS011;68630;42.748;23.278;2023-09-18T03:17:46;19.70;;;12.95;;
79202;SDS011;68630;42.748;23.278;2023-09-18T03:20:25;27.67;;;13.72;;
79202;SDS011;68630;42.748;23.278;2023-09-18T03:22:50;21.00;;;11.88;;
79202;SDS011;68630;42.748;23.278;2023-09-18T03:25:19;20.17;;;12.88;;
79202;SDS011;68630;42.748;23.278;2023-09-18T03:27:47;20.55;;;13.90;;
79202;SDS011;68630;42.748;23.278;2023-09-18T03:30:15;20.97;;;13.80;;
79202;SDS011;68630;42.748;23.278;2023-09-18T03:32:42;26.68;;;14.80;;
79202;SDS011;68630;42.748;23.278;2023-09-18T03:35:11;22.35;;;14.63;;
79202;SDS011;68630;42.748;23.278;2023-09-18T03:37:49;27.60;;;15.08;;
79202;SDS011;68630;42.748;23.278;2023-09-18T03:40:19;26.77;;;16.00;;
79202;SDS011;68630;42.748;23.278;2023-09-18T03:42:47;25.52;;;15.83;;
79202;SDS011;68630;42.748;23.278;2023-09-18T03:45:17;26.07;;;16.17;;
79202;SDS011;68630;42.748;23.278;2023-09-18T03:47:45;27.75;;;16.50;;
79202;SDS011;68630;42.748;23.278;2023-09-18T03:52:52;30.57;;;18.02;;
79202;SDS011;68630;42.748;23.278;2023-09-18T03:55:17;27.67;;;17.05;;
79202;SDS011;68630;42.748;23.278;2023-09-18T04:00:33;28.12;;;18.30;;
79202;SDS011;68630;42.748;23.278;2023-09-18T04:03:03;39.63;;;20.37;;
79202;SDS011;68630;42.748;23.278;2023-09-18T04:05:39;30.50;;;17.77;;
79202;SDS011;68630;42.748;23.278;2023-09-18T04:08:03;35.03;;;18.67;;
79202;SDS011;68630;42.748;23.278;2023-09-18T04:10:36;28.62;;;19.07;;
79202;SDS011;68630;42.748;23.278;2023-09-18T04:13:22;36.53;;;19.48;;
79202;SDS011;68630;42.748;23.278;2023-09-18T04:15:40;36.25;;;19.02;;
79202;SDS011;68630;42.748;23.278;2023-09-18T04:18:07;31.77;;;20.43;;
79202;SDS011;68630;42.748;23.278;2023-09-18T04:20:37;29.45;;;18.73;;
79202;SDS011;68630;42.748;23.278;2023-09-18T04:25:56;29.90;;;18.02;;
79202;SDS011;68630;42.748;23.278;2023-09-18T04:28:24;31.77;;;16.82;;
79202;SDS011;68630;42.748;23.278;2023-09-18T04:30:53;33.02;;;16.77;;
79202;SDS011;68630;42.748;23.278;2023-09-18T04:33:23;31.70;;;16.65;;
79202;SDS011;68630;42.748;23.278;2023-09-18T04:36:06;26.75;;;16.32;;
79202;SDS011;68630;42.748;23.278;2023-09-18T04:38:23;29.20;;;16.35;;
79202;SDS011;68630;42.748;23.278;2023-09-18T04:43:28;21.52;;;13.38;;
79202;SDS011;68630;42.748;23.278;2023-09-18T04:45:56;21.15;;;11.63;;
79202;SDS011;68630;42.748;23.278;2023-09-18T04:48:23;29.20;;;12.37;;
79202;SDS011;68630;42.748;23.278;2023-09-18T04:50:51;26.68;;;12.28;;
79202;SDS011;68630;42.748;23.278;2023-09-18T04:53:18;25.00;;;14.05;;
79202;SDS011;68630;42.748;23.278;2023-09-18T04:55:46;22.75;;;11.03;;
79202;SDS011;68630;42.748;23.278;2023-09-18T04:58:15;29.52;;;12.65;;
79202;SDS011;68630;42.748;23.278;2023-09-18T05:00:43;27.40;;;11.85;;
79202;SDS011;68630;42.748;23.278;2023-09-18T05:03:12;28.83;;;14.43;;
79202;SDS011;68630;42.748;23.278;2023-09-18T05:05:40;32.05;;;15.38;;
79202;SDS011;68630;42.748;23.278;2023-09-18T05:08:09;31.62;;;17.98;;
79202;SDS011;68630;42.748;23.278;2023-09-18T05:10:37;34.23;;;17.92;;
79202;SDS011;68630;42.748;23.278;2023-09-18T05:13:06;34.95;;;16.35;;
79202;SDS011;68630;42.748;23.278;2023-09-18T05:15:34;26.42;;;15.90;;
79202;SDS011;68630;42.748;23.278;2023-09-18T05:18:02;38.55;;;17.73;;
79202;SDS011;68630;42.748;23.278;2023-09-18T05:20:31;33.18;;;16.97;;
79202;SDS011;68630;42.748;23.278;2023-09-18T05:22:59;40.25;;;17.35;;
79202;SDS011;68630;42.748;23.278;2023-09-18T05:25:46;41.83;;;18.50;;
79202;SDS011;68630;42.748;23.278;2023-09-18T05:28:14;33.73;;;16.57;;
79202;SDS011;68630;42.748;23.278;2023-09-18T05:30:41;28.50;;;15.08;;
79202;SDS011;68630;42.748;23.278;2023-09-18T05:33:09;34.60;;;13.88;;
79202;SDS011;68630;42.748;23.278;2023-09-18T05:35:40;27.20;;;13.95;;
79202;SDS011;68630;42.748;23.278;2023-09-18T05:38:09;30.10;;;12.20;;
79202;SDS011;68630;42.748;23.278;2023-09-18T05:40:40;34.33;;;11.70;;
79202;SDS011;68630;42.748;23.278;2023-09-18T05:43:09;23.38;;;10.45;;
79202;SDS011;68630;42.748;23.278;2023-09-18T05:45:40;26.25;;;10.48;;
79202;SDS011;68630;42.748;23.278;2023-09-18T05:48:10;25.82;;;10.03;;
79202;SDS011;68630;42.748;23.278;2023-09-18T05:50:38;22.70;;;9.48;;
79202;SDS011;68630;42.748;23.278;2023-09-18T05:53:08;19.05;;;9.95;;
79202;SDS011;68630;42.748;23.278;2023-09-18T05:55:40;17.45;;;9.93;;
79202;SDS011;68630;42.748;23.278;2023-09-18T05:58:04;19.20;;;10.08;;
79202;SDS011;68630;42.748;23.278;2023-09-18T06:00:32;21.70;;;9.95;;
79202;SDS011;68630;42.748;23.278;2023-09-18T06:03:05;19.42;;;10.25;;
79202;SDS011;68630;42.748;23.278;2023-09-18T06:05:31;16.35;;;11.53;;
79202;SDS011;68630;42.748;23.278;2023-09-18T06:08:11;19.50;;;11.93;;
79202;SDS011;68630;42.748;23.278;2023-09-18T06:13:14;37.50;;;13.35;;
79202;SDS011;68630;42.748;23.278;2023-09-18T06:15:42;32.80;;;13.70;;
79202;SDS011;68630;42.748;23.278;2023-09-18T06:18:09;24.00;;;12.60;;
79202;SDS011;68630;42.748;23.278;2023-09-18T06:20:39;23.57;;;12.15;;
79202;SDS011;68630;42.748;23.278;2023-09-18T06:23:07;23.15;;;11.65;;
79202;SDS011;68630;42.748;23.278;2023-09-18T06:25:34;23.60;;;12.28;;
79202;SDS011;68630;42.748;23.278;2023-09-18T06:28:03;19.15;;;11.93;;
79202;SDS011;68630;42.748;23.278;2023-09-18T06:30:31;18.37;;;11.33;;
79202;SDS011;68630;42.748;23.278;2023-09-18T06:33:00;22.05;;;12.82;;
79202;SDS011;68630;42.748;23.278;2023-09-18T06:35:29;31.20;;;11.10;;
79202;SDS011;68630;42.748;23.278;2023-09-18T06:38:04;22.42;;;11.38;;
79202;SDS011;68630;42.748;23.278;2023-09-18T06:40:33;17.00;;;10.88;;
79202;SDS011;68630;42.748;23.278;2023-09-18T06:43:04;22.75;;;12.20;;
79202;SDS011;68630;42.748;23.278;2023-09-18T06:45:32;21.07;;;11.75;;
79202;SDS011;68630;42.748;23.278;2023-09-18T06:47:59;19.92;;;10.68;;
79202;SDS011;68630;42.748;23.278;2023-09-18T06:50:27;12.75;;;8.68;;
79202;SDS011;68630;42.748;23.278;2023-09-18T06:52:56;17.80;;;8.55;;
79202;SDS011;68630;42.748;23.278;2023-09-18T06:55:23;13.20;;;8.55;;
79202;SDS011;68630;42.748;23.278;2023-09-18T06:57:51;17.73;;;9.38;;
79202;SDS011;68630;42.748;23.278;2023-09-18T07:00:19;20.30;;;9.50;;
79202;SDS011;68630;42.748;23.278;2023-09-18T07:02:46;15.53;;;8.70;;
79202;SDS011;68630;42.748;23.278;2023-09-18T07:05:15;19.45;;;9.20;;
79202;SDS011;68630;42.748;23.278;2023-09-18T07:07:42;17.92;;;9.03;;
79202;SDS011;68630;42.748;23.278;2023-09-18T07:10:10;15.03;;;8.58;;
79202;SDS011;68630;42.748;23.278;2023-09-18T07:12:37;16.30;;;8.98;;
79202;SDS011;68630;42.748;23.278;2023-09-18T07:15:07;18.82;;;9.10;;
79202;SDS011;68630;42.748;23.278;2023-09-18T07:17:35;16.10;;;8.73;;
79202;SDS011;68630;42.748;23.278;2023-09-18T07:20:02;11.68;;;8.95;;
79202;SDS011;68630;42.748;23.278;2023-09-18T07:22:37;20.60;;;9.55;;
79202;SDS011;68630;42.748;23.278;2023-09-18T07:25:05;16.27;;;9.70;;
79202;SDS011;68630;42.748;23.278;2023-09-18T07:27:33;15.70;;;9.05;;
79202;SDS011;68630;42.748;23.278;2023-09-18T07:30:02;16.07;;;10.30;;
79202;SDS011;68630;42.748;23.278;2023-09-18T07:32:31;16.17;;;9.68;;
79202;SDS011;68630;42.748;23.278;2023-09-18T07:34:59;17.77;;;10.20;;
79202;SDS011;68630;42.748;23.278;2023-09-18T07:37:32;17.40;;;11.15;;
79202;SDS011;68630;42.748;23.278;2023-09-18T07:39:56;14.47;;;9.63;;
79202;SDS011;68630;42.748;23.278;2023-09-18T07:42:24;14.83;;;10.00;;
79202;SDS011;68630;42.748;23.278;2023-09-18T07:44:53;23.15;;;11.25;;
79202;SDS011;68630;42.748;23.278;2023-09-18T07:47:20;14.95;;;10.08;;
79202;SDS011;68630;42.748;23.278;2023-09-18T07:49:48;18.07;;;11.38;;
79202;SDS011;68630;42.748;23.278;2023-09-18T07:52:16;12.13;;;10.28;;
79202;SDS011;68630;42.748;23.278;2023-09-18T07:54:44;16.25;;;11.83;;
79202;SDS011;68630;42.748;23.278;2023-09-18T07:57:11;14.35;;;9.73;;
79202;SDS011;68630;42.748;23.278;2023-09-18T07:59:41;22.27;;;10.48;;
79202;SDS011;68630;42.748;23.278;2023-09-18T08:02:09;24.82;;;11.40;;
79202;SDS011;68630;42.748;23.278;2023-09-18T08:04:38;17.90;;;10.35;;
79202;SDS011;68630;42.748;23.278;2023-09-18T08:07:06;16.02;;;10.60;;
79202;SDS011;68630;42.748;23.278;2023-09-18T08:09:33;17.25;;;10.23;;
79202;SDS011;68630;42.748;23.278;2023-09-18T08:12:09;17.25;;;11.10;;
79202;SDS011;68630;42.748;23.278;2023-09-18T08:14:34;11.08;;;8.53;;
79202;SDS011;68630;42.748;23.278;2023-09-18T08:17:03;15.15;;;7.90;;
79202;SDS011;68630;42.748;23.278;2023-09-18T08:19:33;12.95;;;8.33;;
79202;SDS011;68630;42.748;23.278;2023-09-18T08:22:02;21.37;;;8.50;;
79202;SDS011;68630;42.748;23.278;2023-09-18T08:24:32;13.65;;;8.50;;
79202;SDS011;68630;42.748;23.278;2023-09-18T08:27:00;13.45;;;8.43;;
79202;SDS011;68630;42.748;23.278;2023-09-18T08:29:32;13.88;;;9.05;;
79202;SDS011;68630;42.748;23.278;2023-09-18T08:31:58;13.95;;;8.98;;
79202;SDS011;68630;42.748;23.278;2023-09-18T08:34:25;14.65;;;8.45;;
79202;SDS011;68630;42.748;23.278;2023-09-18T08:36:53;15.72;;;9.05;;
79202;SDS011;68630;42.748;23.278;2023-09-18T08:39:20;14.78;;;8.65;;
79202;SDS011;68630;42.748;23.278;2023-09-18T08:41:49;13.75;;;8.15;;
79202;SDS011;68630;42.748;23.278;2023-09-18T08:44:20;13.32;;;8.48;;
79202;SDS011;68630;42.748;23.278;2023-09-18T08:46:54;14.00;;;8.40;;
79202;SDS011;68630;42.748;23.278;2023-09-18T08:49:26;13.75;;;8.90;;
79202;SDS011;68630;42.748;23.278;2023-09-18T08:51:55;13.50;;;8.40;;
79202;SDS011;68630;42.748;23.278;2023-09-18T08:54:25;17.07;;;8.90;;
79202;SDS011;68630;42.748;23.278;2023-09-18T08:56:54;22.22;;;8.93;;
79202;SDS011;68630;42.748;23.278;2023-09-18T08:59:22;22.35;;;10.20;;
79202;SDS011;68630;42.748;23.278;2023-09-18T09:01:55;13.22;;;8.10;;
79202;SDS011;68630;42.748;23.278;2023-09-18T09:04:21;14.30;;;8.08;;
79202;SDS011;68630;42.748;23.278;2023-09-18T09:06:49;18.67;;;8.33;;
79202;SDS011;68630;42.748;23.278;2023-09-18T09:09:21;15.45;;;8.68;;
79202;SDS011;68630;42.748;23.278;2023-09-18T09:11:49;15.08;;;8.05;;
79202;SDS011;68630;42.748;23.278;2023-09-18T09:14:17;19.12;;;7.92;;
79202;SDS011;68630;42.748;23.278;2023-09-18T09:16:46;14.15;;;8.88;;
79202;SDS011;68630;42.748;23.278;2023-09-18T09:19:18;18.12;;;8.55;;
79202;SDS011;68630;42.748;23.278;2023-09-18T09:21:47;15.45;;;8.28;;
79202;SDS011;68630;42.748;23.278;2023-09-18T09:24:17;14.47;;;8.18;;
79202;SDS011;68630;42.748;23.278;2023-09-18T09:26:56;11.53;;;7.33;;
79202;SDS011;68630;42.748;23.278;2023-09-18T09:29:18;13.05;;;8.13;;
79202;SDS011;68630;42.748;23.278;2023-09-18T09:31:46;12.53;;;8.28;;
79202;SDS011;68630;42.748;23.278;2023-09-18T09:34:23;21.73;;;8.18;;
79202;SDS011;68630;42.748;23.278;2023-09-18T09:36:56;11.03;;;8.00;;
79202;SDS011;68630;42.748;23.278;2023-09-18T09:39:25;16.30;;;8.15;;
79202;SDS011;68630;42.748;23.278;2023-09-18T09:41:53;14.43;;;8.48;;
79202;SDS011;68630;42.748;23.278;2023-09-18T09:44:22;18.10;;;8.40;;
79202;SDS011;68630;42.748;23.278;2023-09-18T09:46:51;12.28;;;8.13;;
79202;SDS011;68630;42.748;23.278;2023-09-18T09:49:19;16.93;;;8.58;;
79202;SDS011;68630;42.748;23.278;2023-09-18T09:51:48;13.30;;;8.50;;
79202;SDS011;68630;42.748;23.278;2023-09-18T09:54:16;14.98;;;7.55;;
79202;SDS011;68630;42.748;23.278;2023-09-18T09:56:47;14.33;;;8.05;;
79202;SDS011;68630;42.748;23.278;2023-09-18T09:59:17;16.30;;;7.92;;
79202;SDS011;68630;42.748;23.278;2023-09-18T10:01:48;16.67;;;8.23;;
79202;SDS011;68630;42.748;23.278;2023-09-18T10:04:17;14.63;;;7.00;;
79202;SDS011;68630;42.748;23.278;2023-09-18T10:06:58;14.43;;;6.72;;
79202;SDS011;68630;42.748;23.278;2023-09-18T10:09:23;18.27;;;6.20;;
79202;SDS011;68630;42.748;23.278;2023-09-18T10:11:55;14.87;;;5.87;;
79202;SDS011;68630;42.748;23.278;2023-09-18T10:14:29;9.23;;;6.20;;
79202;SDS011;68630;42.748;23.278;2023-09-18T10:22:37;17.43;;;7.17;;
79202;SDS011;68630;42.748;23.278;2023-09-18T10:25:10;11.88;;;6.45;;
79202;SDS011;68630;42.748;23.278;2023-09-18T10:27:39;12.80;;;6.60;;
79202;SDS011;68630;42.748;23.278;2023-09-18T10:30:12;18.87;;;6.58;;
79202;SDS011;68630;42.748;23.278;2023-09-18T10:32:40;11.90;;;7.22;;
79202;SDS011;68630;42.748;23.278;2023-09-18T10:35:13;15.58;;;7.17;;
79202;SDS011;68630;42.748;23.278;2023-09-18T10:37:38;17.98;;;6.92;;
79202;SDS011;68630;42.748;23.278;2023-09-18T10:42:42;17.95;;;7.10;;
79202;SDS011;68630;42.748;23.278;2023-09-18T10:45:12;15.03;;;7.45;;
79202;SDS011;68630;42.748;23.278;2023-09-18T10:47:42;8.83;;;6.53;;
79202;SDS011;68630;42.748;23.278;2023-09-18T10:50:22;13.22;;;6.58;;
79202;SDS011;68630;42.748;23.278;2023-09-18T10:52:52;18.02;;;6.45;;
79202;SDS011;68630;42.748;23.278;2023-09-18T10:58:22;15.78;;;6.53;;
79202;SDS011;68630;42.748;23.278;2023-09-18T11:00:47;11.60;;;6.37;;
79202;SDS011;68630;42.748;23.278;2023-09-18T11:03:16;9.38;;;5.80;;
79202;SDS011;68630;42.748;23.278;2023-09-18T11:05:45;11.22;;;5.97;;
79202;SDS011;68630;42.748;23.278;2023-09-18T11:08:29;8.38;;;6.10;;
79202;SDS011;68630;42.748;23.278;2023-09-18T11:11:07;10.08;;;5.30;;
79202;SDS011;68630;42.748;23.278;2023-09-18T11:13:40;10.32;;;5.62;;
79202;SDS011;68630;42.748;23.278;2023-09-18T11:18:47;8.78;;;5.22;;
79202;SDS011;68630;42.748;23.278;2023-09-18T11:21:18;11.40;;;5.90;;
79202;SDS011;68630;42.748;23.278;2023-09-18T11:23:47;8.93;;;5.05;;
79202;SDS011;68630;42.748;23.278;2023-09-18T11:26:19;8.33;;;5.47;;
79202;SDS011;68630;42.748;23.278;2023-09-18T11:28:47;11.40;;;6.05;;
79202;SDS011;68630;42.748;23.278;2023-09-18T11:31:16;10.00;;;5.30;;
79202;SDS011;68630;42.748;23.278;2023-09-18T11:33:45;10.20;;;5.90;;
79202;SDS011;68630;42.748;23.278;2023-09-18T11:38:59;13.08;;;4.97;;
79202;SDS011;68630;42.748;23.278;2023-09-18T11:41:31;9.80;;;5.55;;
79202;SDS011;68630;42.748;23.278;2023-09-18T11:44:46;11.30;;;5.35;;
79202;SDS011;68630;42.748;23.278;2023-09-18T11:46:45;10.13;;;5.00;;
79202;SDS011;68630;42.748;23.278;2023-09-18T11:49:22;12.25;;;5.60;;
79202;SDS011;68630;42.748;23.278;2023-09-18T11:51:54;9.88;;;4.90;;
79202;SDS011;68630;42.748;23.278;2023-09-18T11:54:23;11.03;;;5.03;;
79202;SDS011;68630;42.748;23.278;2023-09-18T11:56:51;7.40;;;4.58;;
79202;SDS011;68630;42.748;23.278;2023-09-18T11:59:32;11.43;;;5.28;;
79202;SDS011;68630;42.748;23.278;2023-09-18T12:02:01;12.82;;;5.35;;
79202;SDS011;68630;42.748;23.278;2023-09-18T12:04:31;11.90;;;5.70;;
79202;SDS011;68630;42.748;23.278;2023-09-18T12:06:59;15.75;;;5.53;;
79202;SDS011;68630;42.748;23.278;2023-09-18T12:09:31;14.43;;;4.92;;
79202;SDS011;68630;42.748;23.278;2023-09-18T12:12:00;8.43;;;4.97;;
79202;SDS011;68630;42.748;23.278;2023-09-18T12:14:30;15.05;;;4.97;;
79202;SDS011;68630;42.748;23.278;2023-09-18T12:17:03;11.03;;;5.40;;
79202;SDS011;68630;42.748;23.278;2023-09-18T12:19:29;11.75;;;5.58;;
79202;SDS011;68630;42.748;23.278;2023-09-18T12:21:59;9.35;;;4.87;;
79202;SDS011;68630;42.748;23.278;2023-09-18T12:24:26;11.05;;;4.40;;
79202;SDS011;68630;42.748;23.278;2023-09-18T12:26:54;16.12;;;5.22;;
79202;SDS011;68630;42.748;23.278;2023-09-18T12:29:23;8.33;;;4.85;;
79202;SDS011;68630;42.748;23.278;2023-09-18T12:31:51;21.48;;;5.03;;
79202;SDS011;68630;42.748;23.278;2023-09-18T12:34:19;12.65;;;4.75;;
79202;SDS011;68630;42.748;23.278;2023-09-18T12:36:49;13.08;;;5.10;;
79202;SDS011;68630;42.748;23.278;2023-09-18T12:39:20;11.50;;;5.53;;
79202;SDS011;68630;42.748;23.278;2023-09-18T12:41:48;7.92;;;5.05;;
79202;SDS011;68630;42.748;23.278;2023-09-18T12:44:17;10.18;;;5.28;;
79202;SDS011;68630;42.748;23.278;2023-09-18T12:46:45;10.18;;;5.35;;
79202;SDS011;68630;42.748;23.278;2023-09-18T12:49:21;7.20;;;4.33;;
79202;SDS011;68630;42.748;23.278;2023-09-18T12:51:55;7.12;;;5.00;;
79202;SDS011;68630;42.748;23.278;2023-09-18T12:54:36;8.95;;;5.20;;
79202;SDS011;68630;42.748;23.278;2023-09-18T12:57:08;10.00;;;5.50;;
79202;SDS011;68630;42.748;23.278;2023-09-18T12:59:52;14.03;;;5.22;;
79202;SDS011;68630;42.748;23.278;2023-09-18T13:02:06;12.07;;;4.87;;
79202;SDS011;68630;42.748;23.278;2023-09-18T13:04:35;9.43;;;4.90;;
79202;SDS011;68630;42.748;23.278;2023-09-18T13:07:06;12.43;;;4.90;;
79202;SDS011;68630;42.748;23.278;2023-09-18T13:09:40;12.53;;;4.87;;
79202;SDS011;68630;42.748;23.278;2023-09-18T13:12:09;10.95;;;5.47;;
79202;SDS011;68630;42.748;23.278;2023-09-18T13:17:37;14.93;;;4.65;;
79202;SDS011;68630;42.748;23.278;2023-09-18T13:20:11;18.62;;;4.95;;
79202;SDS011;68630;42.748;23.278;2023-09-18T13:22:47;6.37;;;4.42;;
79202;SDS011;68630;42.748;23.278;2023-09-18T13:25:19;7.40;;;4.55;;
79202;SDS011;68630;42.748;23.278;2023-09-18T13:27:52;14.25;;;4.65;;
79202;SDS011;68630;42.748;23.278;2023-09-18T13:30:20;7.30;;;4.37;;
79202;SDS011;68630;42.748;23.278;2023-09-18T13:32:49;9.95;;;4.37;;
79202;SDS011;68630;42.748;23.278;2023-09-18T13:35:17;7.90;;;4.50;;
79202;SDS011;68630;42.748;23.278;2023-09-18T13:37:45;12.00;;;4.95;;
79202;SDS011;68630;42.748;23.278;2023-09-18T13:40:13;15.63;;;4.72;;
79202;SDS011;68630;42.748;23.278;2023-09-18T13:42:46;9.38;;;4.90;;
79202;SDS011;68630;42.748;23.278;2023-09-18T13:45:11;8.30;;;4.67;;
79202;SDS011;68630;42.748;23.278;2023-09-18T13:47:40;7.65;;;5.10;;
79202;SDS011;68630;42.748;23.278;2023-09-18T13:50:08;9.73;;;4.87;;
79202;SDS011;68630;42.748;23.278;2023-09-18T13:52:38;8.80;;;4.55;;
79202;SDS011;68630;42.748;23.278;2023-09-18T13:55:05;7.53;;;4.37;;
79202;SDS011;68630;42.748;23.278;2023-09-18T13:57:35;8.38;;;4.60;;
79202;SDS011;68630;42.748;23.278;2023-09-18T14:00:06;14.05;;;4.67;;
79202;SDS011;68630;42.748;23.278;2023-09-18T14:02:35;9.33;;;4.60;;
79202;SDS011;68630;42.748;23.278;2023-09-18T14:05:03;12.30;;;4.90;;
79202;SDS011;68630;42.748;23.278;2023-09-18T14:07:31;12.93;;;5.35;;
79202;SDS011;68630;42.748;23.278;2023-09-18T14:09:59;11.60;;;4.80;;
79202;SDS011;68630;42.748;23.278;2023-09-18T14:12:28;17.00;;;5.33;;
79202;SDS011;68630;42.748;23.278;2023-09-18T14:14:58;8.93;;;4.72;;
79202;SDS011;68630;42.748;23.278;2023-09-18T14:17:26;10.25;;;4.53;;
79202;SDS011;68630;42.748;23.278;2023-09-18T14:19:55;15.58;;;5.20;;
79202;SDS011;68630;42.748;23.278;2023-09-18T14:22:26;24.63;;;5.50;;
79202;SDS011;68630;42.748;23.278;2023-09-18T14:24:53;7.65;;;4.75;;
79202;SDS011;68630;42.748;23.278;2023-09-18T14:27:21;9.30;;;4.87;;
79202;SDS011;68630;42.748;23.278;2023-09-18T14:29:49;13.58;;;4.80;;
79202;SDS011;68630;42.748;23.278;2023-09-18T14:32:16;8.43;;;4.80;;
79202;SDS011;68630;42.748;23.278;2023-09-18T14:34:44;7.80;;;4.53;;
79202;SDS011;68630;42.748;23.278;2023-09-18T14:37:12;9.03;;;4.37;;
79202;SDS011;68630;42.748;23.278;2023-09-18T14:39:39;8.38;;;4.67;;
79202;SDS011;68630;42.748;23.278;2023-09-18T14:42:07;38.45;;;6.03;;
79202;SDS011;68630;42.748;23.278;2023-09-18T14:44:36;15.38;;;4.45;;
79202;SDS011;68630;42.748;23.278;2023-09-18T14:49:38;9.50;;;4.95;;
79202;SDS011;68630;42.748;23.278;2023-09-18T14:52:08;22.75;;;5.62;;
79202;SDS011;68630;42.748;23.278;2023-09-18T14:54:36;10.23;;;5.12;;
79202;SDS011;68630;42.748;23.278;2023-09-18T14:57:05;14.10;;;4.30;;
79202;SDS011;68630;42.748;23.278;2023-09-18T14:59:36;10.03;;;4.70;;
79202;SDS011;68630;42.748;23.278;2023-09-18T15:02:03;10.20;;;5.10;;
79202;SDS011;68630;42.748;23.278;2023-09-18T15:04:32;12.47;;;4.97;;
79202;SDS011;68630;42.748;23.278;2023-09-18T15:07:00;11.43;;;5.50;;
79202;SDS011;68630;42.748;23.278;2023-09-18T15:09:27;13.28;;;4.80;;